Terminal Aerodrome Forecast
Issued by NWS Green Bay, WI

Home | Current Version | Previous Version | Graphics & Text | Print | Product List | Glossary On
Versions: 1 2 3 4 5 6 7 8 9 10 11 12 13 14 15 16 17 18 19 20 21 22 23 24 25 26 27 28 29 30 31 32 33 34 35 36 37 38 39 40 41 42 43 44 45 46 47 48 49 50
000
FTUS43 KGRB 161723
TAFGRB
TAF
KGRB 161723Z 1618/1718 04010KT P6SM OVC025
     FM170000 05007KT P6SM OVC018
     FM170800 04005KT P6SM SCT008 OVC015
      TEMPO 1710/1714 5SM -FZDZ BR BKN008
     FM171400 08006KT 6SM BR SCT009 OVC018
      TEMPO 1714/1718 4SM -FZDZ BR BKN009=

USA.gov is the U.S. government's official web portal to all federal, state and local government web resources and services.